Detroit, MI

6:33 AM EDT on October 24, 2014 (GMT -0400)
Detroit Metro Wayne County | Change Station
CLOSE
Current Station
Airport
Location: Detroit Metro,
Elevation: 663 ft
Nearby Weather Stations

Elev 663 ft 42.23 °N, 83.33 °W | Updated 40 minutes ago

Overcast
Overcast
38 °F
Feels Like 38 °F
N
0
Wind Variable Wind from North

Today
High -- | Low -- °F
--% Chance of Precip.
Yesterday
High -- | Low -- °F
Precip. -- in
7:56 AM 6:37 PM
New Moon, 0% visible
Pressure 30.10 in
Visibility 7.0 miles
Clouds Scattered Clouds 13000 ft
Overcast 22000 ft
Dew Point 35 °F
Humidity 89%
Rainfall 0.00 in
Snow Depth Not available.
UV 0 out of 12
Pollen .10 out of 12
PM2.5 Moderate
Flu Activity Sporadic
METAR KDTW 240953Z 00000KT 7SM SCT130 OVC220 03/02 A3009 RMK AO2 SLP192 T00330017

More Conditions Fewer Conditions

Pressure 30.10 in
Visibility 7.0 miles
Clouds Scattered Clouds 13000 ft
Overcast 22000 ft
Dew Point 35 °F
Humidity 89%
Rainfall 0.00 in
Snow Depth Not available.
UV 0 out of 12
Pollen .10 out of 12
PM2.5 Moderate
Flu Activity Sporadic
METAR KDTW 240953Z 00000KT 7SM SCT130 OVC220 03/02 A3009 RMK AO2 SLP192 T00330017

More Conditions Fewer Conditions

10-Day Weather Forecast

Almanac

Astronomy

Oct. 24, 2014 Rise Set
Actual Time 7:56 AM EDT 6:37 PM EDT
Civil Twilight 7:28 AM EDT 7:06 PM EDT
Nautical Twilight 6:55 AM EDT 7:39 PM EDT
Astronomical Twilight 6:22 AM EDT 8:11 PM EDT
Moon 8:35 AM EDT 7:16 PM EDT
Length of Visible Light 11h 38m
Length of Day
10h 41m
Tomorrow will be 2m 38s shorter.
New Moon, 0% of the Moon is Illuminated
Today
New Moon
Oct 30
First Quarter
Nov 6
Full
Nov 14
Last Quarter
Nov 22
New

Today's Extremes

State Highs State Lows

Community

WunderPhotos

Upload Photos

1,764,516 photos uploaded!

WunderBlogs® & News

Nearby

Air Quality

  Air Quality AQ Index Pollutant
Yesterday Good
PM10
Yesterday Good
OZONE
Current Moderate
PM2.5
Friday Moderate
PM2.5
Saturday Good
PM2.5
Sunday Good
PM2.5
Monday Moderate
PM2.5

Snow Depth

Station Depth Elevation
No new snow has been reported.

Earthquake Activity

City Distance Mag. Time & Date
No recent earthquake activity has been reported nearby.
Minimum magnitude displayed is 2.5.

Coastal Water Temperatures

Place Temperature
Marblehead, OH 52.0 °F

Nearby Weather Stations